createdAt,value
2018-08-11T00:00:07.293Z,98429.81
2018-08-11T00:01:13.235Z,98422.73
2018-08-11T00:02:16.090Z,98431.98
2018-08-11T00:03:20.239Z,98427.53
2018-08-11T00:04:23.119Z,98427.70
2018-08-11T00:05:26.494Z,98420.25
2018-08-11T00:06:29.308Z,98425.94
2018-08-11T00:07:33.038Z,98425.17
2018-08-11T00:08:35.832Z,98416.73
2018-08-11T00:09:38.666Z,98418.05
2018-08-11T00:10:42.066Z,98417.70
2018-08-11T00:11:44.952Z,98417.45
2018-08-11T00:12:49.395Z,98424.49
2018-08-11T00:13:53.422Z,98421.48
2018-08-11T00:14:57.245Z,98417.36
2018-08-11T00:16:01.082Z,98420.64
2018-08-11T00:17:04.637Z,98422.66
2018-08-11T00:18:08.103Z,98411.95
2018-08-11T00:19:13.325Z,98410.34
2018-08-11T00:20:18.227Z,98413.06
2018-08-11T00:21:21.690Z,98408.36
2018-08-11T00:22:24.494Z,98415.91
2018-08-11T00:23:28.103Z,98414.89
2018-08-11T00:24:31.687Z,98411.69
2018-08-11T00:25:37.659Z,98411.09
2018-08-11T00:26:40.553Z,98410.05
2018-08-11T00:27:44.753Z,98408.33
2018-08-11T00:28:47.625Z,98406.36
2018-08-11T00:29:50.436Z,98407.95
2018-08-11T00:30:54.021Z,98403.52
2018-08-11T00:31:57.211Z,98405.02
2018-08-11T00:33:00.036Z,98403.11
2018-08-11T00:34:03.506Z,98403.55
2018-08-11T00:35:06.332Z,98403.90
2018-08-11T00:36:09.391Z,98404.15
2018-08-11T00:37:13.312Z,98406.41
2018-08-11T00:38:17.711Z,98403.95
2018-08-11T00:39:20.527Z,98397.92
2018-08-11T00:40:23.315Z,98403.50
2018-08-11T00:41:26.779Z,98399.94
2018-08-11T00:42:30.819Z,98399.48
2018-08-11T00:43:34.199Z,98393.43
2018-08-11T00:44:39.182Z,98396.95
2018-08-11T00:45:42.159Z,98392.80
2018-08-11T00:46:45.091Z,98394.46
2018-08-11T00:47:47.981Z,98396.06
2018-08-11T00:48:50.835Z,98394.55
2018-08-11T00:49:54.978Z,98399.61
2018-08-11T00:50:58.335Z,98393.49
2018-08-11T00:52:01.145Z,98392.41
2018-08-11T00:53:03.964Z,98393.77
2018-08-11T00:54:07.564Z,98389.33
2018-08-11T00:55:11.423Z,98389.95
2018-08-11T00:56:15.289Z,98396.48
2018-08-11T00:57:18.449Z,98387.28
2018-08-11T00:58:22.413Z,98385.30
2018-08-11T00:59:25.239Z,98383.20
2018-08-11T01:00:28.084Z,98390.86
2018-08-11T01:01:30.918Z,98386.55
2018-08-11T01:02:34.521Z,98391.89
2018-08-11T01:03:38.514Z,98389.38
2018-08-11T01:04:41.355Z,98392.86
2018-08-11T01:05:45.160Z,98387.28
2018-08-11T01:06:48.002Z,98392.30
2018-08-11T01:07:51.494Z,98388.11
2018-08-11T01:08:55.432Z,98385.16
2018-08-11T01:09:59.469Z,98388.46
2018-08-11T01:11:03.534Z,98392.80
2018-08-11T01:12:06.413Z,98390.73
2018-08-11T01:13:10.081Z,98388.69
2018-08-11T01:14:12.911Z,98388.98
2018-08-11T01:15:16.802Z,98391.70
2018-08-11T01:16:20.392Z,98386.78
2018-08-11T01:17:23.232Z,98386.02
2018-08-11T01:18:26.110Z,98390.55
2018-08-11T01:19:29.040Z,98392.91
2018-08-11T01:20:31.882Z,98390.70
2018-08-11T01:21:34.680Z,98387.38
2018-08-11T01:22:38.141Z,98389.25
2018-08-11T01:23:40.967Z,98386.70
2018-08-11T01:24:43.812Z,98391.93
2018-08-11T01:25:47.040Z,98393.98
2018-08-11T01:26:49.858Z,98387.35
2018-08-11T01:27:52.757Z,98393.98
2018-08-11T01:30:14.230Z,98385.03
2018-08-11T01:31:17.293Z,98387.11
2018-08-11T01:32:21.338Z,98383.35
2018-08-11T01:33:25.541Z,98383.05
2018-08-11T01:34:28.362Z,98377.81
2018-08-11T01:35:31.583Z,98386.16
2018-08-11T01:36:34.453Z,98382.33
2018-08-11T01:37:37.752Z,98378.49
2018-08-11T01:38:40.599Z,98376.95
2018-08-11T01:39:45.317Z,98380.39
2018-08-11T01:40:48.594Z,98383.52
2018-08-11T01:41:51.400Z,98384.69
2018-08-11T01:42:54.204Z,98380.99
2018-08-11T01:43:58.958Z,98383.83
2018-08-11T01:45:03.000Z,98380.50
2018-08-11T01:46:06.541Z,98390.45
2018-08-11T01:47:09.843Z,98382.80
2018-08-11T01:48:12.653Z,98384.98
2018-08-11T01:49:15.457Z,98385.27
2018-08-11T01:50:18.984Z,98380.17
2018-08-11T01:51:21.791Z,98379.05
2018-08-11T01:52:24.605Z,98379.89
2018-08-11T01:53:27.770Z,98380.68
2018-08-11T01:54:30.559Z,98375.58
2018-08-11T01:55:33.340Z,98380.28
2018-08-11T01:56:36.186Z,98380.31
2018-08-11T01:57:39.013Z,98378.98
2018-08-11T01:58:42.393Z,98379.27
2018-08-11T01:59:45.603Z,98370.37
2018-08-11T02:00:48.400Z,98371.88
2018-08-11T02:01:51.610Z,98377.84
2018-08-11T02:02:54.403Z,98374.98
2018-08-11T02:03:57.852Z,98371.77
2018-08-11T02:05:00.662Z,98371.75
2018-08-11T02:06:03.887Z,98379.27
2018-08-11T02:07:06.705Z,98380.55
2018-08-11T02:08:09.725Z,98386.12
2018-08-11T02:09:12.582Z,98377.51
2018-08-11T02:10:15.391Z,98378.33
2018-08-11T02:11:18.299Z,98377.23
2018-08-11T02:12:21.636Z,98378.98
2018-08-11T02:13:24.460Z,98373.62
2018-08-11T02:14:27.298Z,98377.26
2018-08-11T02:15:30.113Z,98371.30
2018-08-11T02:16:32.967Z,98374.39
2018-08-11T02:17:35.752Z,98375.75
2018-08-11T02:18:38.904Z,98373.77
2018-08-11T02:19:41.708Z,98379.98
2018-08-11T02:20:44.545Z,98375.45
2018-08-11T02:21:47.366Z,98378.42
2018-08-11T02:22:50.765Z,98380.35
2018-08-11T02:23:53.574Z,98383.20
2018-08-11T02:24:58.280Z,98377.47
2018-08-11T02:26:01.133Z,98381.74
2018-08-11T02:27:03.941Z,98376.56
2018-08-11T02:28:06.727Z,98378.89
2018-08-11T02:29:09.547Z,98380.23
2018-08-11T02:30:13.494Z,98380.35
2018-08-11T02:31:16.655Z,98381.48
2018-08-11T02:32:19.469Z,98382.03
2018-08-11T02:33:22.314Z,98380.55
2018-08-11T02:34:25.339Z,98382.30
2018-08-11T02:35:28.752Z,98385.56
2018-08-11T02:36:31.848Z,98382.14
2018-08-11T02:37:35.353Z,98386.55
2018-08-11T02:38:39.171Z,98378.25
2018-08-11T02:39:41.974Z,98382.72
2018-08-11T02:40:44.806Z,98378.48
2018-08-11T02:41:47.664Z,98380.22
2018-08-11T02:42:50.507Z,98377.31
2018-08-11T02:43:54.016Z,98376.78
2018-08-11T02:44:56.929Z,98369.03
2018-08-11T02:45:59.766Z,98374.75
2018-08-11T02:47:02.590Z,98379.09
2018-08-11T02:48:05.377Z,98382.03
2018-08-11T02:49:08.920Z,98380.88
2018-08-11T02:50:12.928Z,98382.23
2018-08-11T02:51:15.742Z,98387.55
2018-08-11T02:52:18.556Z,98385.13
2018-08-11T02:53:21.387Z,98394.63
2018-08-11T02:54:24.789Z,98389.84
2018-08-11T02:55:27.592Z,98389.08
2018-08-11T02:56:30.759Z,98389.62
2018-08-11T02:57:34.177Z,98392.34
2018-08-11T02:58:36.979Z,98387.88
2018-08-11T02:59:39.810Z,98396.31
2018-08-11T03:00:42.626Z,98390.27
2018-08-11T03:01:46.478Z,98394.17
2018-08-11T03:02:50.547Z,98394.41
2018-08-11T03:03:53.638Z,98390.19
2018-08-11T03:04:56.427Z,98388.91
2018-08-11T03:05:59.245Z,98384.05
2018-08-11T03:07:02.029Z,98386.78
2018-08-11T03:08:04.839Z,98377.80
2018-08-11T03:09:07.980Z,98389.64
2018-08-11T03:10:13.822Z,98396.67
2018-08-11T03:11:18.744Z,98394.30
2018-08-11T03:12:21.572Z,98388.78
2018-08-11T03:13:24.693Z,98383.49
2018-08-11T03:14:27.717Z,98386.30
2018-08-11T03:15:31.180Z,98382.00
2018-08-11T03:16:34.136Z,98378.58
2018-08-11T03:17:36.965Z,98378.03
2018-08-11T03:18:39.787Z,98384.41
2018-08-11T03:19:42.596Z,98379.88
2018-08-11T03:20:45.418Z,98389.66
2018-08-11T03:21:48.597Z,98387.63
2018-08-11T03:22:51.872Z,98384.22
2018-08-11T03:23:55.288Z,98388.14
2018-08-11T03:24:58.083Z,98388.30
2018-08-11T03:26:00.899Z,98382.20
2018-08-11T03:27:03.689Z,98385.63
2018-08-11T03:28:06.859Z,98384.48
2018-08-11T03:29:09.711Z,98391.25
2018-08-11T03:30:12.528Z,98392.18
2018-08-11T03:31:15.347Z,98388.89
2018-08-11T03:32:18.142Z,98389.55
2018-08-11T03:33:20.985Z,98395.24
2018-08-11T03:34:24.320Z,98394.09
2018-08-11T03:35:27.153Z,98392.54
2018-08-11T03:36:30.008Z,98391.59
2018-08-11T03:37:32.916Z,98395.01
2018-08-11T03:38:38.727Z,98392.37
2018-08-11T03:39:41.525Z,98394.92
2018-08-11T03:40:44.847Z,98392.80
2018-08-11T03:41:47.656Z,98401.95
2018-08-11T03:42:50.486Z,98394.81
2018-08-11T03:43:53.477Z,98395.98
2018-08-11T03:44:56.368Z,98394.69
2018-08-11T03:45:59.203Z,98403.80
2018-08-11T03:47:02.463Z,98395.94
2018-08-11T03:48:05.286Z,98397.25
2018-08-11T03:49:08.159Z,98401.02
2018-08-11T03:50:10.970Z,98407.98
2018-08-11T03:51:13.838Z,98403.06
2018-08-11T03:52:16.635Z,98398.24
2018-08-11T03:53:19.912Z,98401.02
2018-08-11T03:54:22.776Z,98404.66
2018-08-11T03:55:25.616Z,98392.97
2018-08-11T03:56:28.447Z,98402.28
2018-08-11T03:57:31.294Z,98406.17
2018-08-11T03:58:34.109Z,98411.33
2018-08-11T03:59:37.359Z,98408.96
2018-08-11T04:00:41.097Z,98412.19
2018-08-11T04:01:43.887Z,98409.24
2018-08-11T04:02:46.687Z,98411.64
2018-08-11T04:03:49.487Z,98414.73
2018-08-11T04:04:52.365Z,98414.03
2018-08-11T04:05:55.520Z,98412.77
2018-08-11T04:06:58.353Z,98420.44
2018-08-11T04:08:01.207Z,98418.14
2018-08-11T04:09:04.190Z,98424.55
2018-08-11T04:10:06.993Z,98426.71
2018-08-11T04:11:09.853Z,98424.88
2018-08-11T04:12:14.545Z,98419.62
2018-08-11T04:13:17.390Z,98432.98
2018-08-11T04:14:20.189Z,98423.86
2018-08-11T04:15:23.007Z,98431.49
2018-08-11T04:16:25.835Z,98424.88
2018-08-11T04:17:33.575Z,98432.19
2018-08-11T04:18:36.749Z,98433.32
2018-08-11T04:19:39.584Z,98426.81
2018-08-11T04:20:42.365Z,98427.95
2018-08-11T04:21:45.687Z,98428.66
2018-08-11T04:22:49.489Z,98434.24
2018-08-11T04:23:52.293Z,98429.11
2018-08-11T04:24:55.445Z,98425.00
2018-08-11T04:25:58.258Z,98423.29
2018-08-11T04:27:01.073Z,98427.52
2018-08-11T04:28:04.581Z,98424.54
2018-08-11T04:29:07.536Z,98426.72
2018-08-11T04:30:11.673Z,98426.37
2018-08-11T04:31:14.933Z,98432.98
2018-08-11T04:32:17.774Z,98423.50
2018-08-11T04:33:20.613Z,98431.14
2018-08-11T04:34:23.411Z,98432.83
2018-08-11T04:35:26.217Z,98436.01
2018-08-11T04:36:29.013Z,98437.39
2018-08-11T04:37:33.118Z,98434.78
2018-08-11T04:38:35.920Z,98432.50
2018-08-11T04:39:38.806Z,98425.45
2018-08-11T04:40:41.616Z,98427.16
2018-08-11T04:41:44.443Z,98435.05
2018-08-11T04:42:47.237Z,98430.83
2018-08-11T04:43:50.457Z,98437.56
2018-08-11T04:44:53.274Z,98445.56
2018-08-11T04:45:56.816Z,98439.97
2018-08-11T04:46:59.646Z,98441.34
2018-08-11T04:48:02.448Z,98440.52
2018-08-11T04:49:05.254Z,98446.47
2018-08-11T04:50:08.224Z,98439.83
2018-08-11T04:51:11.056Z,98443.95
2018-08-11T04:52:13.861Z,98445.31
2018-08-11T04:53:16.659Z,98447.70
2018-08-11T04:54:19.460Z,98450.80
2018-08-11T04:55:22.297Z,98448.41
2018-08-11T04:56:25.530Z,98449.66
2018-08-11T04:57:29.986Z,98445.66
2018-08-11T04:58:32.874Z,98447.27
2018-08-11T04:59:36.542Z,98451.38
2018-08-11T05:00:39.428Z,98448.06
2018-08-11T05:01:42.275Z,98455.03
2018-08-11T05:02:45.548Z,98453.77
2018-08-11T05:03:49.993Z,98459.48
2018-08-11T05:04:52.889Z,98457.42
2018-08-11T05:05:55.712Z,98456.63
2018-08-11T05:06:58.520Z,98460.39
2018-08-11T05:08:01.317Z,98463.84
2018-08-11T05:09:05.211Z,98466.70
2018-08-11T05:10:08.599Z,98467.47
2018-08-11T05:11:11.407Z,98473.30
2018-08-11T05:12:14.222Z,98472.97
2018-08-11T05:13:17.083Z,98473.06
2018-08-11T05:14:19.853Z,98482.30
2018-08-11T05:15:23.005Z,98488.48
2018-08-11T05:16:25.842Z,98483.59
2018-08-11T05:17:28.644Z,98477.16
2018-08-11T05:18:31.550Z,98487.70
2018-08-11T05:19:34.368Z,98480.95
2018-08-11T05:20:37.168Z,98483.58
2018-08-11T05:21:40.449Z,98481.75
2018-08-11T05:22:43.474Z,98484.96
2018-08-11T05:23:46.280Z,98483.13
2018-08-11T05:24:49.130Z,98481.77
2018-08-11T05:25:53.614Z,98483.47
2018-08-11T05:26:56.457Z,98488.95
2018-08-11T05:27:59.730Z,98491.36
2018-08-11T05:29:02.568Z,98488.50
2018-08-11T05:30:06.292Z,98496.12
2018-08-11T05:33:19.623Z,98496.67
2018-08-11T05:34:22.652Z,98499.53
2018-08-11T05:35:25.557Z,98495.53
2018-08-11T05:36:28.373Z,98498.97
2018-08-11T05:37:31.197Z,98497.03
2018-08-11T05:38:34.039Z,98498.55
2018-08-11T05:39:36.837Z,98502.89
2018-08-11T05:40:40.538Z,98504.62
2018-08-11T05:41:43.407Z,98505.76
2018-08-11T05:42:46.253Z,98504.39
2018-08-11T05:43:49.063Z,98507.24
2018-08-11T05:44:51.870Z,98509.52
2018-08-11T05:45:54.702Z,98512.23
2018-08-11T05:46:58.042Z,98509.73
2018-08-11T05:48:00.853Z,98520.70
2018-08-11T05:49:03.851Z,98518.97
2018-08-11T05:50:06.672Z,98515.56
2018-08-11T05:51:09.522Z,98522.44
2018-08-11T05:52:13.354Z,98523.08
2018-08-11T05:53:16.503Z,98522.52
2018-08-11T05:54:19.303Z,98523.66
2018-08-11T05:55:22.125Z,98520.94
2018-08-11T05:56:24.925Z,98520.69
2018-08-11T05:57:27.758Z,98521.42
2018-08-11T05:58:30.799Z,98515.86
2018-08-11T05:59:34.586Z,98526.17
2018-08-11T06:00:37.413Z,98522.67
2018-08-11T06:01:42.643Z,98524.48
2018-08-11T06:02:45.433Z,98515.20
2018-08-11T06:03:48.254Z,98522.44
2018-08-11T06:04:51.085Z,98517.75
2018-08-11T06:05:54.263Z,98522.05
2018-08-11T06:06:57.080Z,98517.40
2018-08-11T06:07:59.913Z,98530.94
2018-08-11T06:09:02.713Z,98524.66
2018-08-11T06:10:06.626Z,98521.59
2018-08-11T06:11:09.440Z,98520.69
2018-08-11T06:12:12.723Z,98524.12
2018-08-11T06:13:15.527Z,98515.23
2018-08-11T06:14:18.333Z,98520.72
2018-08-11T06:15:21.180Z,98519.67
2018-08-11T06:16:24.208Z,98519.36
2018-08-11T06:17:27.101Z,98515.19
2018-08-11T06:18:30.368Z,98523.42
2018-08-11T06:19:33.167Z,98518.38
2018-08-11T06:20:36.065Z,98526.52
2018-08-11T06:21:38.870Z,98528.30
2018-08-11T06:22:41.695Z,98530.66
2018-08-11T06:23:44.537Z,98531.71
2018-08-11T06:24:47.830Z,98529.67
2018-08-11T06:25:50.616Z,98530.28
2018-08-11T06:26:53.410Z,98531.42
2018-08-11T06:27:56.240Z,98516.77
2018-08-11T06:28:59.060Z,98525.16
2018-08-11T06:30:01.869Z,98533.86
2018-08-11T06:31:05.068Z,98515.20
2018-08-11T06:32:07.968Z,98508.36
2018-08-11T06:33:10.862Z,98512.45
2018-08-11T06:34:16.760Z,98513.39
2018-08-11T06:35:19.563Z,98513.57
2018-08-11T06:36:24.310Z,98515.69
2018-08-11T06:37:27.641Z,98508.00
2018-08-11T06:38:30.467Z,98512.77
2018-08-11T06:39:33.311Z,98515.19
2018-08-11T06:40:36.229Z,98516.33
2018-08-11T06:41:39.646Z,98513.31
2018-08-11T06:42:42.497Z,98512.81
2018-08-11T06:43:45.667Z,98514.40
2018-08-11T06:44:48.515Z,98520.55
2018-08-11T06:45:51.390Z,98523.49
2018-08-11T06:46:57.204Z,98527.45
2018-08-11T06:48:00.122Z,98534.41
2018-08-11T06:49:03.908Z,98518.83
2018-08-11T06:50:07.236Z,98513.20
2018-08-11T06:51:10.070Z,98515.59
2018-08-11T06:52:12.876Z,98522.34
2018-08-11T06:53:15.699Z,98518.23
2018-08-11T06:54:19.418Z,98507.60
2018-08-11T06:55:22.227Z,98503.14
2018-08-11T06:56:25.506Z,98521.10
2018-08-11T06:57:28.353Z,98521.59
2018-08-11T06:58:31.162Z,98516.92
2018-08-11T06:59:33.969Z,98523.48
2018-08-11T07:00:36.830Z,98519.36
2018-08-11T07:01:39.645Z,98524.17
2018-08-11T07:02:42.893Z,98525.80
2018-08-11T07:03:45.695Z,98529.00
2018-08-11T07:04:48.657Z,98526.40
2018-08-11T07:05:53.282Z,98527.70
2018-08-11T07:06:56.220Z,98528.07
2018-08-11T07:07:59.073Z,98512.69
2018-08-11T07:09:02.226Z,98525.90
2018-08-11T07:10:05.659Z,98535.83
2018-08-11T07:11:08.484Z,98533.41
2018-08-11T07:12:11.340Z,98540.22
2018-08-11T07:13:14.226Z,98534.16
2018-08-11T07:14:17.052Z,98541.29
2018-08-11T07:15:20.442Z,98539.09
2018-08-11T07:16:23.517Z,98537.06
2018-08-11T07:17:26.359Z,98543.19
2018-08-11T07:18:30.265Z,98539.69
2018-08-11T07:19:33.068Z,98542.80
2018-08-11T07:20:35.917Z,98533.86
2018-08-11T07:21:39.246Z,98542.39
2018-08-11T07:22:43.981Z,98544.48
2018-08-11T07:23:46.779Z,98539.59
2018-08-11T07:24:50.254Z,98553.44
2018-08-11T07:25:53.093Z,98553.70
2018-08-11T07:26:57.498Z,98547.31
2018-08-11T07:28:01.384Z,98555.41
2018-08-11T07:29:04.556Z,98554.34
2018-08-11T07:30:08.284Z,98545.96
2018-08-11T07:31:11.152Z,98541.21
2018-08-11T07:32:14.007Z,98544.94
2018-08-11T07:33:16.819Z,98539.28
2018-08-11T07:34:20.011Z,98492.78
2018-08-11T07:35:22.886Z,98529.61
2018-08-11T07:36:25.928Z,98551.16
2018-08-11T07:37:28.630Z,98535.02
2018-08-11T07:38:31.473Z,98537.47
2018-08-11T07:39:34.301Z,98533.73
2018-08-11T07:40:37.693Z,98545.19
2018-08-11T07:41:40.613Z,98537.59
2018-08-11T07:42:43.413Z,98531.02
2018-08-11T07:43:46.232Z,98542.73
2018-08-11T07:44:50.643Z,98545.09
2018-08-11T07:45:54.706Z,98545.79
2018-08-11T07:46:58.014Z,98540.66
2018-08-11T07:48:01.824Z,98543.84
2018-08-11T07:49:04.618Z,98553.35
2018-08-11T07:50:08.386Z,98533.17
2018-08-11T07:51:11.217Z,98544.48
2018-08-11T07:52:15.027Z,98553.92
2018-08-11T07:53:18.314Z,98545.52
2018-08-11T07:54:21.202Z,98546.17
2018-08-11T07:55:24.074Z,98556.63
2018-08-11T07:56:27.075Z,98541.36
2018-08-11T07:57:30.572Z,98550.88
2018-08-11T07:58:33.660Z,98542.69
2018-08-11T07:59:37.663Z,98542.34
2018-08-11T08:00:41.614Z,98524.59
2018-08-11T08:01:44.501Z,98534.94
2018-08-11T08:02:47.394Z,98537.34
2018-08-11T08:03:54.057Z,98542.53
2018-08-11T08:04:59.841Z,98553.45
2018-08-11T08:06:04.410Z,98548.98
2018-08-11T08:07:07.547Z,98570.70
2018-08-11T08:08:10.391Z,98558.67
2018-08-11T08:09:14.605Z,98553.73
2018-08-11T08:10:17.493Z,98557.08
2018-08-11T08:11:20.376Z,98556.69
2018-08-11T08:12:23.563Z,98560.48
2018-08-11T08:13:26.424Z,98558.09
2018-08-11T08:14:29.237Z,98550.94
2018-08-11T08:15:32.057Z,98562.59
2018-08-11T08:16:34.917Z,98549.45
2018-08-11T08:17:38.059Z,98560.08
2018-08-11T08:18:41.206Z,98547.55
2018-08-11T08:19:44.712Z,98537.23
2018-08-11T08:20:47.562Z,98557.69
2018-08-11T08:21:50.528Z,98568.42
2018-08-11T08:22:53.362Z,98565.70
2018-08-11T08:23:56.310Z,98546.64
2018-08-11T08:25:00.693Z,98551.64
2018-08-11T08:26:03.760Z,98542.86
2018-08-11T08:27:06.743Z,98546.42
2018-08-11T08:28:09.619Z,98553.17
2018-08-11T08:29:12.505Z,98555.48
2018-08-11T08:30:15.324Z,98562.66
2018-08-11T08:31:18.478Z,98566.98
2018-08-11T08:32:21.472Z,98568.78
2018-08-11T08:33:25.497Z,98566.52
2018-08-11T08:34:28.319Z,98554.95
2018-08-11T08:35:31.703Z,98534.36
2018-08-11T08:36:34.558Z,98562.43
2018-08-11T08:37:39.609Z,98577.80
2018-08-11T08:38:42.473Z,98553.66
2018-08-11T08:39:45.384Z,98554.80
2018-08-11T08:40:48.911Z,98556.62
2018-08-11T08:41:51.822Z,98575.31
2018-08-11T08:42:55.034Z,98566.27
2018-08-11T08:43:58.687Z,98531.38
2018-08-11T08:45:01.554Z,98537.35
2018-08-11T08:46:05.845Z,98545.93
2018-08-11T08:47:09.045Z,98560.06
2018-08-11T08:48:13.514Z,98565.55
2018-08-11T08:49:16.700Z,98555.98
2018-08-11T08:50:19.906Z,98549.93
2018-08-11T08:51:23.486Z,98543.27
2018-08-11T08:52:26.366Z,98551.79
2018-08-11T08:53:29.191Z,98545.64
2018-08-11T08:54:33.128Z,98555.81
2018-08-11T08:55:36.284Z,98565.12
2018-08-11T08:56:40.600Z,98568.77
2018-08-11T08:57:44.117Z,98557.70
2018-08-11T08:58:48.588Z,98555.09
2018-08-11T08:59:51.476Z,98551.52
2018-08-11T09:00:54.371Z,98557.50
2018-08-11T09:01:57.517Z,98564.22
2018-08-11T09:03:00.411Z,98559.42
2018-08-11T09:04:03.231Z,98562.41
2018-08-11T09:05:06.080Z,98556.62
2018-08-11T09:06:09.463Z,98557.19
2018-08-11T09:07:12.280Z,98560.40
2018-08-11T09:08:15.380Z,98564.42
2018-08-11T09:09:19.109Z,98555.06
2018-08-11T09:10:21.931Z,98575.14
2018-08-11T09:11:25.587Z,98561.35
2018-08-11T09:12:29.302Z,98568.59
2018-08-11T09:13:32.169Z,98567.09
2018-08-11T09:14:36.070Z,98562.08
2018-08-11T09:15:38.908Z,98541.75
2018-08-11T09:16:41.744Z,98561.98
2018-08-11T09:17:44.594Z,98543.64
2018-08-11T09:18:48.460Z,98562.48
2018-08-11T09:19:51.709Z,98560.05
2018-08-11T09:20:54.842Z,98549.66
2018-08-11T09:21:57.951Z,98574.28
2018-08-11T09:23:00.816Z,98536.95
2018-08-11T09:24:03.651Z,98564.13
2018-08-11T09:25:06.612Z,98575.34
2018-08-11T09:26:10.067Z,98554.80
2018-08-11T09:27:13.793Z,98567.27
2018-08-11T09:28:16.601Z,98571.94
2018-08-11T09:29:19.526Z,98563.66
2018-08-11T09:30:23.175Z,98568.80
2018-08-11T09:31:26.091Z,98563.42
2018-08-11T09:32:29.554Z,98565.27
2018-08-11T09:33:33.994Z,98572.52
2018-08-11T09:34:37.007Z,98562.86
2018-08-11T09:35:39.846Z,98564.78
2018-08-11T09:36:42.688Z,98563.11
2018-08-11T09:37:47.813Z,98560.14
2018-08-11T09:38:50.724Z,98572.84
2018-08-11T09:39:53.823Z,98557.59
2018-08-11T09:40:56.664Z,98563.38
2018-08-11T09:42:00.580Z,98563.31
2018-08-11T09:43:03.394Z,98561.62
2018-08-11T09:44:06.292Z,98555.83
2018-08-11T09:45:09.151Z,98581.48
2018-08-11T09:46:13.808Z,98557.95
2018-08-11T09:47:16.969Z,98550.95
2018-08-11T09:48:20.689Z,98557.94
2018-08-11T09:49:23.514Z,98560.84
2018-08-11T09:50:27.281Z,98564.96
2018-08-11T09:51:30.145Z,98545.69
2018-08-11T09:52:33.823Z,98556.67
2018-08-11T09:53:36.770Z,98556.62
2018-08-11T09:54:39.780Z,98559.28
2018-08-11T09:55:42.695Z,98557.23
2018-08-11T09:56:45.555Z,98548.55
2018-08-11T09:57:48.449Z,98554.06
2018-08-11T09:58:51.809Z,98553.31
2018-08-11T09:59:54.639Z,98557.92
2018-08-11T10:01:02.525Z,98566.10
2018-08-11T10:02:22.662Z,98565.63
2018-08-11T10:03:26.197Z,98564.75
2018-08-11T10:04:29.120Z,98567.58
2018-08-11T10:05:33.393Z,98559.81
2018-08-11T10:06:40.273Z,98561.89
2018-08-11T10:07:43.109Z,98555.61
2018-08-11T10:08:49.048Z,98547.59
2018-08-11T10:09:51.906Z,98560.51
2018-08-11T10:10:54.798Z,98553.70
2018-08-11T10:11:57.947Z,98536.89
2018-08-11T10:13:01.174Z,98530.48
2018-08-11T10:14:04.090Z,98543.65
2018-08-11T10:15:06.938Z,98559.20
2018-08-11T10:16:09.977Z,98564.77
2018-08-11T10:17:14.050Z,98566.54
2018-08-11T10:19:28.100Z,98555.67
2018-08-11T10:20:31.028Z,98542.05
2018-08-11T10:21:33.942Z,98509.38
2018-08-11T10:22:37.878Z,98551.95
2018-08-11T10:23:41.355Z,98548.28
2018-08-11T10:24:45.681Z,98546.73
2018-08-11T10:25:49.228Z,98562.25
2018-08-11T10:26:52.280Z,98547.08
2018-08-11T10:27:55.183Z,98564.02
2018-08-11T10:28:58.130Z,98566.64
2018-08-11T10:30:01.144Z,98574.02
2018-08-11T10:32:26.791Z,98538.30
2018-08-11T10:33:29.752Z,98543.83
2018-08-11T10:34:32.667Z,98552.42
2018-08-11T10:35:35.635Z,98558.03
2018-08-11T10:36:38.482Z,98560.42
2018-08-11T10:37:41.976Z,98548.55
2018-08-11T10:38:44.989Z,98548.50
2018-08-11T10:39:48.094Z,98547.00
2018-08-11T10:40:51.002Z,98552.06
2018-08-11T10:41:54.991Z,98549.68
2018-08-11T10:42:58.549Z,98551.72
2018-08-11T10:44:01.728Z,98549.85
2018-08-11T10:45:04.672Z,98571.69
2018-08-11T10:46:07.607Z,98530.95
2018-08-11T10:47:10.612Z,98562.06
2018-08-11T10:48:13.498Z,98554.45
2018-08-11T10:49:16.497Z,98554.36
2018-08-11T10:50:19.724Z,98543.98
2018-08-11T10:51:22.652Z,98555.78
2018-08-11T10:52:25.863Z,98550.34
2018-08-11T10:53:28.759Z,98537.75
2018-08-11T10:54:31.686Z,98506.89
2018-08-11T10:55:34.716Z,98557.06
2018-08-11T10:56:39.173Z,98558.01
2018-08-11T10:57:42.041Z,98562.42
2018-08-11T10:58:44.876Z,98557.16
2018-08-11T10:59:47.751Z,98549.51
2018-08-11T11:00:50.572Z,98566.94
2018-08-11T11:01:53.412Z,98562.27
2018-08-11T11:02:57.159Z,98559.13
2018-08-11T11:04:00.027Z,98574.02
2018-08-11T11:05:03.510Z,98566.22
2018-08-11T11:06:06.544Z,98569.27
2018-08-11T11:07:09.388Z,98558.23
2018-08-11T11:08:12.197Z,98556.95
2018-08-11T11:09:15.352Z,98569.16
2018-08-11T11:10:18.214Z,98564.19
2018-08-11T11:11:21.654Z,98571.78
2018-08-11T11:12:25.502Z,98553.84
2018-08-11T11:13:28.417Z,98568.94
2018-08-11T11:14:31.291Z,98572.78
2018-08-11T11:15:34.447Z,98577.12
2018-08-11T11:16:37.790Z,98569.23
2018-08-11T11:17:41.165Z,98566.74
2018-08-11T11:18:43.987Z,98563.48
2018-08-11T11:19:46.856Z,98553.70
2018-08-11T11:20:50.420Z,98573.73
2018-08-11T11:21:53.536Z,98561.93
2018-08-11T11:22:57.316Z,98570.25
2018-08-11T11:24:00.863Z,98564.91
2018-08-11T11:25:03.716Z,98559.98
2018-08-11T11:26:06.625Z,98563.07
2018-08-11T11:27:10.460Z,98550.57
2018-08-11T11:28:13.586Z,98559.55
2018-08-11T11:29:16.435Z,98557.61
2018-08-11T11:30:19.246Z,98568.27
2018-08-11T11:31:23.581Z,98571.39
2018-08-11T11:32:26.520Z,98580.29
2018-08-11T11:33:29.375Z,98572.72
2018-08-11T11:34:32.589Z,98565.00
2018-08-11T11:35:35.433Z,98582.59
2018-08-11T11:36:38.294Z,98569.42
2018-08-11T11:37:41.174Z,98578.19
2018-08-11T11:38:44.024Z,98575.24
2018-08-11T11:39:48.272Z,98563.84
2018-08-11T11:40:51.461Z,98563.05
2018-08-11T11:41:55.454Z,98565.70
2018-08-11T11:42:58.315Z,98568.98
2018-08-11T11:44:01.974Z,98571.39
2018-08-11T11:45:04.803Z,98569.69
2018-08-11T11:46:07.771Z,98570.96
2018-08-11T11:47:11.574Z,98570.09
2018-08-11T11:48:14.456Z,98564.38
2018-08-11T11:49:17.331Z,98567.48
2018-08-11T11:50:20.307Z,98572.70
2018-08-11T11:51:23.152Z,98556.05
2018-08-11T11:52:25.986Z,98563.88
2018-08-11T11:53:30.003Z,98577.45
2018-08-11T11:54:32.860Z,98562.45
2018-08-11T11:55:35.691Z,98575.19
2018-08-11T11:56:38.516Z,98569.53
2018-08-11T11:57:41.345Z,98568.41
2018-08-11T11:58:44.205Z,98568.64
2018-08-11T11:59:47.408Z,98582.30
2018-08-11T12:00:50.328Z,98577.30
2018-08-11T12:01:53.832Z,98576.34
2018-08-11T12:02:56.737Z,98580.11
2018-08-11T12:04:00.495Z,98571.25
2018-08-11T12:05:03.440Z,98575.92
2018-08-11T12:06:06.297Z,98553.67
2018-08-11T12:07:09.234Z,98559.86
2018-08-11T12:08:12.972Z,98543.83
2018-08-11T12:09:15.836Z,98558.52
2018-08-11T12:10:18.658Z,98566.11
2018-08-11T12:11:22.456Z,98541.39
2018-08-11T12:12:25.713Z,98541.97
2018-08-11T12:13:28.574Z,98548.91
2018-08-11T12:14:31.452Z,98567.67
2018-08-11T12:15:34.306Z,98550.38
2018-08-11T12:16:38.431Z,98565.47
2018-08-11T12:17:41.323Z,98565.08
2018-08-11T12:18:44.522Z,98565.44
2018-08-11T12:19:48.232Z,98554.61
2018-08-11T12:20:51.111Z,98539.70
2018-08-11T12:21:53.952Z,98543.11
2018-08-11T12:22:57.763Z,98532.61
2018-08-11T12:24:00.693Z,98528.51
2018-08-11T12:25:08.641Z,98560.43
2018-08-11T12:26:11.578Z,98566.90
2018-08-11T12:27:14.413Z,98565.83
2018-08-11T12:28:17.272Z,98561.63